x

Nanakwa Shoal (46181) Weather Station

4:00am - Fri 22nd May 2015 All times are PDT. -7 hours from GMT.

  • Peak Period 4s
  • Wind
    4mph, 7mph gusts
  • Sea Temp 56°f
  • Air Temp 57°f
  • Sea Pressure 1014.1mb
  • Nanakwa Shoal
  • Nanakwa Shoal

More Historic Weather Station data

Upgrade to MSW Pro to gain access to the past 30 days of data for over 8000 Wavebouys and Weather Stations around the globe.

Join Pro

Comparision Forecast

View Surf forecast
   
Fri 05/22 4:00am  -  4s 4 7 mph 1014.1mb 56f 57f
3:00am  -  4s 2
mph
1013.8mb 57f 58f
2:00am  -  5s  -  2 mph 1013.6mb 57f 59f
1:00am  -  4s  -  2 mph 1013.3mb 57f 59f
12:00am 0.3ft 4s 4
mph
1012.8mb 57f 60f
Thu 05/21 11:00pm 0.3ft 4s 4
mph
1012.4mb 58f 62f
10:00pm 0.3ft 2s 2 7 mph 1012mb 56f 65f
9:00pm 0.3ft 2s 4 7 mph 1011.3mb 57f 65f
8:00pm 0.3ft 3s 13 16 mph 1010.6mb 58f 67f
7:00pm 0.3ft 3s 13
mph
1010.6mb 59f 68f
6:00pm 0.3ft 4s 13 16 mph 1010.6mb 60f 69f
5:00pm  -  4s 9
mph
1011mb 60f 68f
4:00pm  -  5s 7 9 mph 1011.4mb 60f 69f
3:00pm  -  5s 7
mph
1011.9mb 62f 65f
2:00pm 0.3ft 2s 7
mph
1012.5mb 59f 65f
1:00pm 0.3ft 2s 4
mph
1013.2mb 57f 65f
12:00pm 0.3ft 2s 7 11 mph 1013.8mb 56f 64f
11:00am 0.3ft 2s 11 16 mph 1014.3mb 56f 62f
10:00am 0.7ft 2s 16 22 mph 1014.7mb 56f 60f
9:00am 0.7ft 2s 18 22 mph 1015.1mb 58f 58f
8:00am 0.7ft 2s 18 22 mph 1015.2mb 58f 55f
7:00am 0.7ft 2s 22 25 mph 1015mb 58f 56f
6:00am 0.7ft 2s 20 25 mph 1015mb 58f 56f
5:00am 0.7ft 2s 20 22 mph 1015mb 58f 56f
4:00am 0.7ft 2s 18 22 mph 1015mb 58f 57f
3:00am 0.3ft 2s 20 25 mph 1014.9mb 60f 58f
2:00am 0.3ft 2s 18 20 mph 1014.9mb 58f 60f
1:00am 0.3ft 2s 16 18 mph 1014.8mb 58f 60f
12:00am 0.3ft 2s 18 20 mph 1014.9mb 60f 62f
Wed 05/20 11:00pm 0.3ft 2s 16 18 mph 1014.9mb 60f 62f
10:00pm 0.3ft 4s 9 11 mph 1014.8mb 61f 63f
9:00pm 0.3ft 3s 2 4 mph 1014.6mb 61f 63f
8:00pm 0.3ft 3s 2 4 mph 1014.2mb 61f 65f
7:00pm 0.3ft 3s 2 4 mph 1014.1mb 61f 66f
6:00pm 0.3ft 2s 4 7 mph 1014.1mb 61f 68f
5:00pm 0.3ft 2s 13 16 mph 1014mb 60f 68f
4:00pm 0.3ft 2s 11 13 mph 1014.5mb 61f 65f
3:00pm  -  4s 9 13 mph 1015mb 61f 64f
2:00pm  -  4s  -  mph 1015.8mb 61f 66f
1:00pm  -  4s 2
mph
1016.5mb 60f 64f
12:00pm  -  2s 4
mph
1017.4mb 59f 62f
11:00am 0.3ft 6s  -  2 mph 1018mb 60f 61f
10:00am 0.3ft 2s 11
mph
1018.3mb 61f 59f
9:00am 0.3ft 2s 11 13 mph 1018.7mb 59f 57f
8:00am 0.3ft 2s 11 13 mph 1019mb 58f 55f
7:00am 0.3ft 2s 9
mph
1019.1mb 58f 55f
6:00am 0.3ft 2s 7 9 mph 1018.9mb 58f 55f
5:00am 0.3ft 2s 11 13 mph 1018.6mb 58f 55f
4:00am 0.3ft 2s 4 9 mph 1018.6mb 59f 56f
3:00am  -  5s 11
mph
1018.5mb 58f 57f
2:00am  -  5s 2 7 mph 1018.5mb 58f 57f
1:00am  -  4s  -  2 mph 1018.6mb 58f 58f
12:00am  -  4s 2 4 mph 1018.4mb 58f 59f
Tue 05/19 11:00pm 0.3ft 2s 2
mph
1018.4mb 59f 61f
10:00pm 0.3ft 2s 4 9 mph 1018.3mb 59f 63f
9:00pm 0.3ft 2s 4 7 mph 1017.9mb 59f 62f
8:00pm 0.7ft 2s 9 11 mph 1017.5mb 59f 64f
7:00pm 0.7ft 2s 16 18 mph 1017.3mb 59f 64f
6:00pm 0.7ft 3s 16 18 mph 1017.2mb 59f 65f
5:00pm 0.7ft 2s 16 18 mph 1017.1mb 60f 65f
4:00pm 0.3ft 2s 13 16 mph 1017.4mb 60f 65f
3:00pm  -  4s 11 13 mph 1017.9mb 62f 64f
2:00pm  -  4s  -  mph 1018.5mb 62f 69f
1:00pm  -  4s 2
mph
1019.1mb 63f 64f
12:00pm  -  5s  -  mph 1019.8mb 60f 62f
11:00am 0.3ft 6s  -  2 mph 1020.3mb 60f 63f
10:00am 0.3ft 6s 4
mph
1020.9mb 59f 58f
9:00am 0.3ft 2s 9 11 mph 1021.3mb 59f 56f
8:00am 0.3ft 2s 11 13 mph 1021.5mb 59f 55f
7:00am 0.3ft 2s 13 16 mph 1021.3mb 59f 55f
6:00am 0.3ft 2s 9 13 mph 1021mb 58f 54f
5:00am  -  5s 9
mph
1020.6mb 58f 55f
4:00am  -  5s 7 9 mph 1020.3mb 59f 56f
3:00am 0.3ft 5s 4 7 mph 1020mb 59f 57f
2:00am  -  4s 2 4 mph 1019.9mb 58f 58f
1:00am 0.3ft 2s  -  2 mph 1019.8mb 59f 58f
12:00am 0.3ft 2s  -  2 mph 1019.6mb 58f 59f
Mon 05/18 11:00pm 0.3ft 2s 4 7 mph 1019.5mb 59f 62f
10:00pm 0.3ft 2s 4 7 mph 1019.5mb 60f 62f
9:00pm 0.3ft 2s 7 9 mph 1019mb 60f 64f
8:00pm 0.7ft 3s 16 22 mph 1018.6mb 57f 64f
7:00pm 0.7ft 3s 7 16 mph 1018.6mb 57f 68f
6:00pm 0.7ft 3s 16 18 mph 1017.7mb 59f 65f
5:00pm 0.7ft 3s 18
mph
1017.7mb 60f 64f
4:00pm 0.7ft 3s 18 20 mph 1017.8mb 59f 63f
3:00pm 0.3ft 2s 13 16 mph 1018.3mb 59f 61f
2:00pm 0.3ft 2s 13
mph
1018.5mb 60f 61f
1:00pm  -  6s 9 11 mph 1018.9mb 60f 59f